Time;durP1;ratioP1;P1;durP2;ratioP2;P2;SDS_P1;SDS_P2;PMS_P1;PMS_P2;Temp;Humidity;BMP_temperature;BMP_pressure;BME280_temperature;BME280_humidity;BME280_pressure;Samples;Min_cycle;Max_cycle;Signal;HPM_P1;HPM_P2
2023/09/29 00:00:20;;;;;;;12.93;5.53;;;17.10;76.40;;;;;;5105524;28;20953;-80
2023/09/29 00:02:50;;;;;;;10.70;5.60;;;17.10;76.40;;;;;;5085483;28;20462;-80
2023/09/29 00:05:21;;;;;;;9.47;5.33;;;17.00;76.50;;;;;;5106798;28;20456;-80
2023/09/29 00:07:54;;;;;;;8.67;5.20;;;17.00;76.50;;;;;;5104260;28;20479;-80
2023/09/29 00:10:23;;;;;;;10.17;5.20;;;17.00;76.40;;;;;;5110033;28;20487;-81
2023/09/29 00:12:51;;;;;;;9.70;5.20;;;17.00;76.40;;;;;;5112027;28;20545;-80
2023/09/29 00:15:21;;;;;;;9.93;5.50;;;17.00;76.50;;;;;;5111271;28;20456;-80
2023/09/29 00:17:49;;;;;;;9.63;5.90;;;17.00;76.60;;;;;;5092625;28;20542;-80
2023/09/29 00:20:23;;;;;;;9.70;5.27;;;17.00;76.60;;;;;;5107781;28;20504;-80
2023/09/29 00:22:54;;;;;;;10.10;5.87;;;17.00;76.50;;;;;;5110727;28;20456;-80
2023/09/29 00:25:23;;;;;;;8.87;5.47;;;17.00;76.60;;;;;;5091253;28;20460;-81
2023/09/29 00:27:52;;;;;;;11.90;5.43;;;16.90;76.60;;;;;;5107111;28;20455;-81
2023/09/29 00:30:21;;;;;;;11.40;6.47;;;16.90;76.70;;;;;;5109951;28;20440;-81
2023/09/29 00:32:50;;;;;;;9.10;5.57;;;16.90;76.70;;;;;;5111040;28;20963;-79
2023/09/29 00:35:24;;;;;;;12.40;6.33;;;16.90;76.80;;;;;;5108884;28;20445;-80
2023/09/29 00:37:54;;;;;;;9.33;5.50;;;16.90;76.90;;;;;;5112731;28;20455;-81
2023/09/29 00:40:23;;;;;;;12.60;6.23;;;16.90;76.90;;;;;;5111985;28;20460;-80
2023/09/29 00:42:52;;;;;;;11.13;5.20;;;16.90;76.70;;;;;;5092748;28;20449;-80
2023/09/29 00:45:23;;;;;;;10.80;5.43;;;16.90;76.70;;;;;;5091880;28;20550;-80
2023/09/29 00:47:55;;;;;;;12.00;5.93;;;16.80;76.80;;;;;;5109450;28;20459;-80
2023/09/29 00:50:26;;;;;;;7.43;4.80;;;16.80;76.90;;;;;;5111949;28;20539;-81
2023/09/29 00:52:59;;;;;;;10.20;5.47;;;16.80;77.10;;;;;;5108974;28;20951;-80
2023/09/29 00:55:30;;;;;;;9.03;5.17;;;16.90;77.10;;;;;;5108449;28;20455;-80
2023/09/29 00:57:59;;;;;;;9.20;5.67;;;16.80;77.10;;;;;;5110390;28;20571;-80
2023/09/29 01:00:31;;;;;;;14.23;6.33;;;16.80;77.10;;;;;;5089775;28;21510;-80
2023/09/29 01:03:02;;;;;;;9.00;5.67;;;16.80;77.10;;;;;;5108125;28;20518;-82
2023/09/29 01:05:31;;;;;;;10.30;6.30;;;16.80;77.10;;;;;;5108048;28;20513;-80
2023/09/29 01:08:01;;;;;;;10.70;6.20;;;16.70;77.10;;;;;;5111492;28;21335;-82
2023/09/29 01:10:29;;;;;;;8.30;5.20;;;16.70;77.30;;;;;;5110252;28;20540;-81
2023/09/29 01:12:57;;;;;;;10.50;5.00;;;16.70;77.40;;;;;;5091243;28;20991;-82
2023/09/29 01:15:25;;;;;;;9.50;5.83;;;16.70;77.40;;;;;;5090818;28;20462;-80
2023/09/29 01:17:53;;;;;;;9.97;5.30;;;16.80;77.40;;;;;;5087242;28;20470;-80
2023/09/29 01:20:28;;;;;;;8.77;4.50;;;16.80;77.40;;;;;;5090357;28;20456;-80
2023/09/29 01:22:57;;;;;;;9.47;4.97;;;16.70;77.20;;;;;;5087768;28;20480;-81
2023/09/29 01:25:27;;;;;;;9.17;5.60;;;16.70;77.20;;;;;;5092109;28;21150;-80
2023/09/29 01:27:56;;;;;;;8.90;5.50;;;16.70;77.10;;;;;;5090177;28;20919;-79
2023/09/29 01:30:25;;;;;;;10.33;6.07;;;16.60;77.10;;;;;;5090140;28;20490;-81
2023/09/29 01:32:56;;;;;;;11.80;5.40;;;16.60;77.10;;;;;;5090502;28;20533;-82
2023/09/29 01:35:24;;;;;;;10.43;6.00;;;16.60;77.10;;;;;;5105272;28;21134;-82
2023/09/29 01:37:54;;;;;;;9.63;5.63;;;16.50;77.10;;;;;;5107408;28;20449;-81
2023/09/29 01:40:24;;;;;;;8.53;5.60;;;16.50;77.10;;;;;;5110296;28;20487;-82
2023/09/29 01:42:56;;;;;;;10.40;5.77;;;16.40;77.10;;;;;;5087712;28;20468;-81
2023/09/29 01:45:25;;;;;;;10.50;5.57;;;16.40;77.20;;;;;;5109921;28;20476;-81
2023/09/29 01:47:54;;;;;;;10.53;5.30;;;16.40;77.10;;;;;;5088085;28;20491;-81
2023/09/29 01:50:23;;;;;;;10.80;6.20;;;16.40;77.10;;;;;;5108205;28;20821;-82
2023/09/29 01:52:52;;;;;;;9.67;5.13;;;16.40;77.00;;;;;;5109099;28;20448;-81
2023/09/29 01:55:22;;;;;;;10.30;5.23;;;16.30;77.00;;;;;;5109124;28;20783;-81
2023/09/29 01:57:54;;;;;;;11.80;4.70;;;16.30;77.10;;;;;;5107929;28;20478;-80
2023/09/29 02:00:25;;;;;;;11.77;5.93;;;16.30;77.10;;;;;;5088296;28;20452;-80
2023/09/29 02:02:54;;;;;;;10.03;5.73;;;16.30;77.10;;;;;;5104038;28;20460;-80
2023/09/29 02:05:24;;;;;;;9.87;5.50;;;16.30;77.10;;;;;;5107909;28;21008;-80
2023/09/29 02:07:52;;;;;;;12.50;5.47;;;16.30;77.10;;;;;;5110494;28;20497;-80
2023/09/29 02:10:24;;;;;;;8.73;4.90;;;16.30;77.00;;;;;;5088511;28;20500;-80
2023/09/29 02:12:57;;;;;;;9.57;5.30;;;16.30;77.00;;;;;;5105251;28;20444;-81
2023/09/29 02:15:27;;;;;;;13.23;6.00;;;16.20;77.10;;;;;;5105920;28;20452;-81
2023/09/29 02:17:57;;;;;;;10.30;5.80;;;16.30;77.00;;;;;;5109461;28;20479;-80
2023/09/29 02:20:29;;;;;;;9.80;5.77;;;16.20;77.10;;;;;;5090659;28;20452;-82
2023/09/29 02:22:59;;;;;;;11.37;5.93;;;16.20;77.00;;;;;;5090188;28;20440;-80
2023/09/29 02:25:29;;;;;;;11.47;6.20;;;16.20;77.00;;;;;;5104253;28;20475;-81
2023/09/29 02:28:00;;;;;;;11.80;6.27;;;16.20;76.90;;;;;;5093683;28;20447;-80
2023/09/29 02:30:29;;;;;;;12.30;5.60;;;16.10;76.90;;;;;;5104540;28;20474;-80
2023/09/29 02:32:58;;;;;;;17.83;6.10;;;16.00;76.90;;;;;;5109084;28;20542;-79
2023/09/29 02:35:28;;;;;;;8.70;5.70;;;15.90;77.00;;;;;;5089432;28;20489;-80
2023/09/29 02:38:00;;;;;;;14.90;5.37;;;15.90;77.20;;;;;;5106643;28;20624;-80
2023/09/29 02:40:29;;;;;;;9.17;5.33;;;15.80;77.40;;;;;;5106957;28;20509;-80
2023/09/29 02:42:57;;;;;;;10.83;5.67;;;15.80;77.50;;;;;;5114149;28;20922;-80
2023/09/29 02:45:26;;;;;;;10.00;5.60;;;15.90;77.60;;;;;;5105671;28;21045;-80
2023/09/29 02:47:55;;;;;;;12.90;5.53;;;15.90;77.80;;;;;;5106759;28;20987;-80
2023/09/29 02:50:24;;;;;;;10.23;5.90;;;16.00;77.90;;;;;;5104899;28;20464;-80
2023/09/29 02:52:57;;;;;;;8.90;6.03;;;16.00;77.80;;;;;;5102603;28;20505;-80
2023/09/29 02:55:26;;;;;;;11.23;6.40;;;16.10;77.70;;;;;;5104970;28;20474;-81
2023/09/29 02:57:54;;;;;;;8.43;5.70;;;16.10;77.60;;;;;;5085238;28;20456;-80
2023/09/29 03:00:31;;;;;;;10.37;6.40;;;16.00;77.40;;;;;;5084535;28;20485;-80
2023/09/29 03:03:00;;;;;;;10.37;6.00;;;16.00;77.50;;;;;;5089585;28;20968;-80
2023/09/29 03:05:28;;;;;;;10.20;6.40;;;15.90;77.50;;;;;;5105622;28;20520;-79
2023/09/29 03:07:56;;;;;;;11.53;5.93;;;15.90;77.50;;;;;;5107298;28;20929;-82
2023/09/29 03:10:29;;;;;;;9.07;6.00;;;15.90;77.60;;;;;;5108298;28;20565;-80
2023/09/29 03:12:57;;;;;;;12.37;6.33;;;15.80;77.50;;;;;;5106255;28;20516;-80
2023/09/29 03:15:26;;;;;;;11.10;5.27;;;15.80;77.60;;;;;;5106474;28;20459;-80
2023/09/29 03:17:56;;;;;;;10.10;6.23;;;15.80;77.70;;;;;;5089629;28;20543;-80
2023/09/29 03:20:27;;;;;;;10.47;6.33;;;15.80;77.70;;;;;;5107224;28;20544;-81
2023/09/29 03:23:04;;;;;;;12.53;5.83;;;15.80;77.70;;;;;;5105090;28;20826;-81
2023/09/29 03:25:32;;;;;;;7.10;4.60;;;15.80;77.80;;;;;;5106993;28;21256;-80
2023/09/29 03:28:00;;;;;;;9.23;5.57;;;15.80;77.80;;;;;;5101710;28;21263;-81
2023/09/29 03:30:31;;;;;;;9.40;6.10;;;15.80;77.80;;;;;;5105086;28;21020;-81
2023/09/29 03:33:00;;;;;;;9.73;6.00;;;15.90;77.80;;;;;;5093932;28;20457;-81
2023/09/29 03:35:29;;;;;;;10.30;5.80;;;15.90;77.80;;;;;;5103563;28;20448;-81
2023/09/29 03:37:57;;;;;;;8.73;5.47;;;15.90;77.70;;;;;;5105508;28;20515;-80
2023/09/29 03:40:26;;;;;;;9.33;5.90;;;15.80;77.70;;;;;;5105148;28;20885;-79
2023/09/29 03:42:55;;;;;;;9.23;6.17;;;15.80;77.60;;;;;;5112534;28;20473;-80
2023/09/29 03:45:23;;;;;;;10.47;5.23;;;15.80;77.50;;;;;;5106535;28;20463;-81
2023/09/29 03:47:52;;;;;;;7.50;5.10;;;15.70;77.60;;;;;;5109370;28;20981;-80
2023/09/29 03:50:21;;;;;;;8.30;5.03;;;15.70;77.80;;;;;;5094531;28;20486;-80
2023/09/29 03:52:49;;;;;;;11.43;5.53;;;15.80;77.90;;;;;;5111940;28;20459;-79
2023/09/29 03:55:17;;;;;;;12.73;6.57;;;15.80;77.90;;;;;;5109622;28;20459;-81
2023/09/29 03:57:45;;;;;;;9.77;5.43;;;15.80;77.80;;;;;;5095287;28;20473;-80
2023/09/29 04:00:18;;;;;;;10.47;5.67;;;15.80;77.70;;;;;;5106139;28;20459;-79
2023/09/29 04:02:49;;;;;;;11.00;6.80;;;15.70;77.70;;;;;;5108485;28;21121;-81
2023/09/29 04:05:18;;;;;;;9.90;5.77;;;15.70;77.70;;;;;;5112244;28;20512;-81
2023/09/29 04:07:48;;;;;;;10.00;5.27;;;15.70;77.70;;;;;;5109244;28;20444;-81
2023/09/29 04:10:16;;;;;;;21.00;6.17;;;15.70;77.70;;;;;;5105884;28;20465;-80
2023/09/29 04:12:45;;;;;;;9.27;6.10;;;15.70;77.60;;;;;;5107643;28;20557;-81
2023/09/29 04:15:14;;;;;;;14.33;5.80;;;15.70;77.60;;;;;;5110378;28;20459;-81
2023/09/29 04:17:43;;;;;;;11.70;6.13;;;15.60;77.70;;;;;;5110148;28;20825;-81
2023/09/29 04:20:12;;;;;;;9.00;5.70;;;15.60;77.70;;;;;;5111219;28;20919;-81
2023/09/29 04:22:40;;;;;;;10.07;5.33;;;15.60;77.60;;;;;;5110284;28;20458;-81
2023/09/29 04:25:10;;;;;;;8.07;5.10;;;15.60;77.70;;;;;;5097227;28;20519;-80
2023/09/29 04:27:40;;;;;;;18.00;6.73;;;15.60;77.90;;;;;;5110580;28;20479;-81
2023/09/29 04:30:10;;;;;;;11.20;6.80;;;15.60;77.90;;;;;;5113048;28;21005;-82
2023/09/29 04:32:38;;;;;;;12.00;6.00;;;15.60;77.90;;;;;;5112971;28;20549;-82
2023/09/29 04:35:07;;;;;;;8.80;6.07;;;15.60;77.90;;;;;;5112879;28;20451;-80
2023/09/29 04:37:35;;;;;;;14.63;6.43;;;15.60;77.90;;;;;;5104892;28;20470;-82
2023/09/29 04:40:04;;;;;;;18.20;7.80;;;15.60;78.00;;;;;;5110653;28;20548;-80
2023/09/29 04:42:34;;;;;;;9.80;6.67;;;15.60;78.10;;;;;;5111569;28;20526;-80
2023/09/29 04:45:03;;;;;;;10.43;6.77;;;15.70;78.10;;;;;;5087677;28;20451;-80
2023/09/29 04:47:32;;;;;;;15.43;6.53;;;15.70;78.20;;;;;;5109326;28;20573;-80
2023/09/29 04:50:00;;;;;;;10.90;7.17;;;15.70;78.30;;;;;;5106563;28;20850;-81
2023/09/29 04:52:28;;;;;;;12.33;7.50;;;15.80;78.30;;;;;;5108425;28;20550;-80
2023/09/29 04:54:56;;;;;;;15.20;7.67;;;15.80;78.30;;;;;;5104650;28;20542;-77
2023/09/29 04:57:24;;;;;;;10.53;7.03;;;15.80;78.30;;;;;;5112076;28;20535;-80
2023/09/29 04:59:54;;;;;;;9.37;6.80;;;15.80;78.30;;;;;;5110848;28;20459;-81
2023/09/29 05:02:24;;;;;;;12.20;7.03;;;15.80;78.30;;;;;;5110202;28;20471;-81
2023/09/29 05:04:52;;;;;;;13.03;6.50;;;15.80;78.40;;;;;;5107601;28;20522;-80
2023/09/29 05:07:21;;;;;;;11.07;6.57;;;15.80;78.50;;;;;;5109910;28;20459;-80
2023/09/29 05:09:49;;;;;;;10.03;6.63;;;15.80;78.60;;;;;;5084275;28;20455;-81
2023/09/29 05:12:17;;;;;;;15.53;7.17;;;15.80;78.60;;;;;;5091622;28;20503;-80
2023/09/29 05:14:45;;;;;;;11.87;7.17;;;15.90;78.60;;;;;;5108959;28;20456;-80
2023/09/29 05:17:15;;;;;;;12.63;7.30;;;15.90;78.70;;;;;;5105028;28;20486;-81
2023/09/29 05:19:43;;;;;;;11.27;6.67;;;15.90;78.70;;;;;;5107058;28;20455;-81
2023/09/29 05:22:11;;;;;;;12.10;7.37;;;15.90;78.70;;;;;;5106601;28;20484;-78
2023/09/29 05:24:39;;;;;;;12.73;8.20;;;16.00;78.80;;;;;;5105429;28;20977;-81
2023/09/29 05:27:07;;;;;;;11.20;8.40;;;16.00;78.80;;;;;;5104852;28;21026;-81
2023/09/29 05:29:39;;;;;;;14.97;7.90;;;16.00;78.80;;;;;;5108071;28;21059;-80
2023/09/29 05:32:07;;;;;;;16.00;8.07;;;16.00;78.90;;;;;;5108582;28;21032;-79
2023/09/29 05:34:37;;;;;;;8.03;5.87;;;16.00;78.80;;;;;;5107245;28;21039;-78
2023/09/29 05:37:05;;;;;;;11.50;6.97;;;16.00;78.90;;;;;;5086860;28;20556;-80
2023/09/29 05:39:34;;;;;;;14.00;6.53;;;16.10;79.00;;;;;;5109912;28;21024;-80
2023/09/29 05:42:03;;;;;;;11.40;7.30;;;16.10;79.00;;;;;;5089238;28;20451;-79
2023/09/29 05:44:32;;;;;;;12.20;8.03;;;16.10;79.10;;;;;;5106719;28;20520;-80
2023/09/29 05:47:00;;;;;;;13.20;7.37;;;16.10;79.10;;;;;;5091734;28;20466;-80
2023/09/29 05:49:28;;;;;;;13.73;8.30;;;16.10;79.30;;;;;;5105338;28;20790;-79
2023/09/29 05:51:57;;;;;;;10.40;7.90;;;16.10;79.30;;;;;;5091488;28;20472;-79
2023/09/29 05:54:29;;;;;;;17.80;8.30;;;16.20;79.50;;;;;;5107910;28;20448;-79
2023/09/29 05:56:57;;;;;;;11.20;7.67;;;16.20;79.50;;;;;;5108928;27;20465;-80
2023/09/29 05:59:25;;;;;;;15.50;8.97;;;16.30;79.40;;;;;;5091370;28;22303;-78
2023/09/29 06:01:53;;;;;;;16.80;9.80;;;16.30;79.40;;;;;;5103546;28;20509;-77
2023/09/29 06:04:39;;;;;;;13.63;9.17;;;16.30;79.50;;;;;;5087770;28;20451;-80
2023/09/29 06:07:09;;;;;;;15.33;9.03;;;16.30;79.40;;;;;;5107169;28;20535;-78
2023/09/29 06:09:39;;;;;;;11.50;8.20;;;16.30;79.50;;;;;;5091455;28;20825;-79
2023/09/29 06:12:07;;;;;;;13.63;7.87;;;16.30;79.60;;;;;;5109075;28;20476;-77
2023/09/29 06:14:35;;;;;;;12.27;7.70;;;16.30;79.70;;;;;;5102267;28;20466;-79
2023/09/29 06:17:03;;;;;;;13.03;7.70;;;16.30;79.80;;;;;;5110339;28;21129;-80
2023/09/29 06:19:32;;;;;;;12.60;7.87;;;16.30;79.80;;;;;;5109787;28;20448;-78
2023/09/29 06:22:00;;;;;;;13.33;8.43;;;16.30;79.90;;;;;;5107820;28;21032;-79
2023/09/29 06:24:36;;;;;;;11.67;8.40;;;16.30;80.10;;;;;;5108890;28;21203;-78
2023/09/29 06:27:05;;;;;;;14.10;7.73;;;16.30;80.20;;;;;;5110981;28;20477;-80
2023/09/29 06:29:33;;;;;;;12.17;7.53;;;16.40;80.20;;;;;;5107617;28;20440;-78
2023/09/29 06:32:01;;;;;;;11.60;7.90;;;16.40;80.20;;;;;;5090142;28;21014;-80
2023/09/29 06:34:29;;;;;;;10.87;7.43;;;16.40;80.30;;;;;;5108261;28;20542;-78
2023/09/29 06:36:57;;;;;;;11.03;7.60;;;16.40;80.40;;;;;;5106920;28;20997;-79
2023/09/29 06:39:25;;;;;;;16.67;8.83;;;16.40;80.50;;;;;;5108488;28;20531;-78
2023/09/29 06:41:55;;;;;;;14.70;10.10;;;16.40;80.70;;;;;;5109445;28;20449;-78
2023/09/29 06:44:23;;;;;;;17.00;9.67;;;16.40;80.70;;;;;;5090371;28;20483;-79
2023/09/29 06:46:51;;;;;;;16.40;10.27;;;16.50;80.70;;;;;;5088606;28;20463;-78
2023/09/29 06:49:19;;;;;;;15.77;9.73;;;16.50;80.80;;;;;;5107562;28;20455;-79
2023/09/29 06:51:47;;;;;;;14.20;8.83;;;16.50;80.90;;;;;;5106781;28;21450;-80
2023/09/29 06:54:21;;;;;;;14.07;7.70;;;16.60;81.00;;;;;;5109504;28;20537;-78
2023/09/29 06:56:49;;;;;;;11.80;8.50;;;16.70;81.00;;;;;;5109995;28;20488;-79
2023/09/29 06:59:18;;;;;;;13.87;9.47;;;16.70;81.00;;;;;;5107277;28;20454;-78
2023/09/29 07:01:47;;;;;;;14.43;8.60;;;16.70;81.10;;;;;;5094776;28;20556;-79
2023/09/29 07:04:15;;;;;;;12.67;8.20;;;16.70;81.10;;;;;;5071045;28;20459;-80
2023/09/29 07:06:43;;;;;;;13.70;9.97;;;16.80;81.20;;;;;;5071276;28;20472;-78
2023/09/29 07:09:12;;;;;;;21.80;9.40;;;16.80;81.30;;;;;;5082588;28;20540;-79
2023/09/29 07:11:41;;;;;;;17.70;8.80;;;16.80;81.40;;;;;;5088633;28;20512;-79
2023/09/29 07:14:10;;;;;;;19.07;8.93;;;16.90;81.40;;;;;;5063422;28;20803;-79
2023/09/29 07:16:42;;;;;;;14.67;9.80;;;16.90;81.40;;;;;;5086778;28;20806;-79
2023/09/29 07:19:12;;;;;;;16.47;8.70;;;16.90;81.40;;;;;;5086943;28;20931;-80
2023/09/29 07:21:40;;;;;;;13.60;9.50;;;17.00;81.50;;;;;;5069139;28;20476;-79
2023/09/29 07:24:09;;;;;;;15.60;8.70;;;17.00;81.50;;;;;;5085610;28;21033;-79
2023/09/29 07:26:38;;;;;;;13.07;9.37;;;17.10;81.50;;;;;;5088831;28;20950;-79
2023/09/29 07:29:06;;;;;;;13.83;9.30;;;17.10;81.60;;;;;;5089109;28;20452;-79
2023/09/29 07:31:35;;;;;;;13.30;8.87;;;17.20;81.60;;;;;;5069288;28;20465;-78
2023/09/29 07:34:05;;;;;;;16.50;9.30;;;17.20;81.60;;;;;;5088086;28;20544;-79
2023/09/29 07:36:35;;;;;;;11.00;8.03;;;17.30;81.60;;;;;;5093139;28;20555;-79
2023/09/29 07:39:03;;;;;;;17.53;8.93;;;17.30;81.70;;;;;;5067784;28;20533;-80
2023/09/29 07:41:31;;;;;;;10.43;7.13;;;17.30;81.70;;;;;;5088221;28;20466;-79
2023/09/29 07:44:06;;;;;;;11.17;7.27;;;17.40;81.60;;;;;;5072514;28;20448;-79
2023/09/29 07:46:36;;;;;;;11.53;8.57;;;17.50;81.70;;;;;;5088259;28;20556;-79
2023/09/29 07:49:06;;;;;;;19.13;9.20;;;17.50;81.70;;;;;;5082641;28;20445;-80
2023/09/29 07:51:34;;;;;;;15.00;7.77;;;17.60;81.70;;;;;;5085544;28;20459;-79
2023/09/29 07:54:02;;;;;;;28.10;8.80;;;17.60;81.60;;;;;;5086160;28;20480;-79
2023/09/29 07:56:30;;;;;;;16.80;9.30;;;17.70;81.70;;;;;;5066440;28;20904;-79
2023/09/29 07:58:58;;;;;;;15.40;8.20;;;17.80;81.60;;;;;;5086723;28;20491;-80
2023/09/29 08:01:26;;;;;;;13.50;7.87;;;17.80;81.60;;;;;;5088004;28;20467;-81
2023/09/29 08:03:54;;;;;;;14.03;8.20;;;17.90;81.70;;;;;;5083633;28;20498;-78
2023/09/29 08:06:24;;;;;;;12.83;8.13;;;17.90;81.70;;;;;;5085523;28;20449;-79
2023/09/29 08:08:53;;;;;;;15.53;7.43;;;18.00;81.80;;;;;;5087420;28;20457;-80
2023/09/29 08:11:21;;;;;;;10.93;7.40;;;18.00;81.80;;;;;;5084362;28;20463;-80
2023/09/29 08:13:52;;;;;;;12.10;7.77;;;18.10;81.80;;;;;;5082579;28;21021;-79
2023/09/29 08:16:20;;;;;;;11.90;7.23;;;18.10;81.70;;;;;;5086593;28;20954;-79
2023/09/29 08:18:48;;;;;;;13.27;7.60;;;18.20;81.70;;;;;;5069713;28;20958;-80
2023/09/29 08:21:16;;;;;;;16.17;7.63;;;18.20;81.80;;;;;;5089279;28;20476;-79
2023/09/29 08:23:45;;;;;;;12.60;7.87;;;18.30;81.90;;;;;;5086226;28;21284;-80
2023/09/29 08:26:13;;;;;;;11.30;6.70;;;18.40;81.90;;;;;;5084058;28;20449;-79
2023/09/29 08:28:41;;;;;;;14.77;6.47;;;18.40;82.00;;;;;;5093977;28;20449;-80
2023/09/29 08:31:14;;;;;;;12.30;6.63;;;18.50;81.90;;;;;;5094265;28;20990;-79
2023/09/29 08:33:42;;;;;;;10.30;6.70;;;18.50;81.90;;;;;;5074810;28;20477;-79
2023/09/29 08:36:18;;;;;;;10.70;6.40;;;18.60;81.90;;;;;;5090935;28;20532;-81
2023/09/29 08:38:47;;;;;;;11.20;5.50;;;18.60;82.00;;;;;;5089626;28;20441;-80
2023/09/29 08:41:18;;;;;;;9.20;6.13;;;18.70;82.00;;;;;;5089318;28;20450;-80
2023/09/29 08:43:47;;;;;;;9.43;4.93;;;18.80;81.90;;;;;;5069921;28;20498;-78
2023/09/29 08:46:34;;;;;;;18.70;5.53;;;18.90;81.80;;;;;;5070087;28;20528;-80
2023/09/29 08:49:04;;;;;;;12.23;6.20;;;19.00;81.80;;;;;;5069017;28;20992;-81
2023/09/29 08:51:33;;;;;;;10.00;5.47;;;19.10;81.60;;;;;;5097895;28;20905;-81
2023/09/29 08:54:04;;;;;;;9.33;5.50;;;19.20;81.40;;;;;;5086385;28;20552;-81
2023/09/29 08:56:32;;;;;;;11.90;5.30;;;19.20;81.40;;;;;;5089443;28;20449;-80
2023/09/29 08:59:03;;;;;;;7.83;4.60;;;19.30;81.10;;;;;;5081781;28;20521;-81
2023/09/29 09:01:31;;;;;;;8.40;5.20;;;19.40;81.00;;;;;;5088199;28;20477;-80
2023/09/29 09:04:00;;;;;;;10.37;5.30;;;19.50;80.90;;;;;;5074070;28;20551;-80
2023/09/29 09:06:30;;;;;;;9.83;5.00;;;19.50;80.70;;;;;;5069884;28;20506;-80
2023/09/29 09:08:59;;;;;;;14.50;5.83;;;19.60;80.60;;;;;;5090192;28;20461;-80
2023/09/29 09:11:29;;;;;;;14.87;5.40;;;19.70;80.40;;;;;;5073357;28;21178;-78
2023/09/29 09:13:59;;;;;;;10.37;5.50;;;19.80;80.10;;;;;;5071999;28;20549;-80
2023/09/29 09:16:28;;;;;;;9.77;5.00;;;19.90;80.00;;;;;;5092138;28;20536;-80
2023/09/29 09:18:56;;;;;;;10.97;5.40;;;19.90;79.80;;;;;;5089871;28;21334;-81
2023/09/29 09:21:32;;;;;;;8.50;4.60;;;20.00;79.70;;;;;;5089314;28;20456;-78
2023/09/29 09:24:00;;;;;;;11.00;5.03;;;20.10;79.50;;;;;;5088379;28;20525;-80
2023/09/29 09:26:30;;;;;;;10.73;4.73;;;20.20;79.30;;;;;;5094635;28;20445;-80
2023/09/29 09:29:08;;;;;;;8.90;4.60;;;20.20;79.00;;;;;;5089603;28;20523;-80
2023/09/29 09:31:44;;;;;;;9.93;5.40;;;20.20;78.90;;;;;;5089267;28;20556;-80
2023/09/29 09:34:13;;;;;;;12.53;5.53;;;20.30;78.90;;;;;;5086045;28;20473;-81
2023/09/29 09:36:47;;;;;;;9.00;4.83;;;20.30;78.80;;;;;;5070879;28;20449;-80
2023/09/29 09:39:16;;;;;;;10.73;5.20;;;20.40;78.70;;;;;;5085908;28;20445;-80
2023/09/29 09:41:50;;;;;;;10.10;5.60;;;20.50;78.40;;;;;;5088813;28;20464;-80
2023/09/29 09:44:19;;;;;;;10.80;5.20;;;20.50;78.40;;;;;;5087649;28;20457;-81
2023/09/29 09:46:54;;;;;;;11.83;5.70;;;20.60;78.30;;;;;;5085678;28;20743;-80
2023/09/29 09:49:29;;;;;;;15.27;5.67;;;20.60;78.20;;;;;;5085572;28;20514;-81
2023/09/29 09:52:05;;;;;;;10.20;4.83;;;20.70;78.00;;;;;;5070249;28;20561;-81
2023/09/29 09:54:40;;;;;;;11.10;5.57;;;20.80;77.80;;;;;;5085064;28;20474;-79
2023/09/29 09:57:13;;;;;;;10.80;5.00;;;20.80;77.80;;;;;;5087245;28;20464;-80
2023/09/29 09:59:44;;;;;;;12.40;5.13;;;20.80;77.70;;;;;;5084546;28;20498;-80
2023/09/29 10:02:13;;;;;;;10.73;5.33;;;20.90;77.50;;;;;;5086496;28;20472;-81
2023/09/29 10:04:43;;;;;;;10.70;5.20;;;20.90;77.40;;;;;;5083794;28;20445;-81
2023/09/29 10:07:11;;;;;;;12.40;5.33;;;21.00;77.50;;;;;;5084070;28;20457;-81
2023/09/29 10:09:44;;;;;;;12.50;5.63;;;21.00;77.30;;;;;;5082762;28;20848;-80
2023/09/29 10:12:27;;;;;;;10.53;4.97;;;21.10;77.10;;;;;;5087480;28;20464;-81
2023/09/29 10:14:56;;;;;;;10.47;5.50;;;21.20;76.90;;;;;;5084964;28;20488;-79
2023/09/29 10:17:25;;;;;;;17.73;5.77;;;21.20;76.90;;;;;;5088164;28;21048;-80
2023/09/29 10:19:54;;;;;;;9.30;4.70;;;21.30;76.80;;;;;;5087022;28;20550;-81
2023/09/29 10:22:24;;;;;;;9.70;5.40;;;21.30;76.50;;;;;;5088570;28;20449;-79
2023/09/29 10:24:56;;;;;;;8.30;4.40;;;21.40;76.40;;;;;;5087372;28;20497;-80
2023/09/29 10:27:34;;;;;;;9.23;4.90;;;21.40;76.40;;;;;;5082632;28;20543;-80
2023/09/29 10:30:17;;;;;;;9.53;5.60;;;21.50;76.30;;;;;;5082915;28;20495;-80
2023/09/29 10:32:47;;;;;;;7.73;4.60;;;21.50;76.30;;;;;;5068879;28;20541;-80
2023/09/29 10:35:20;;;;;;;11.33;6.20;;;21.60;76.30;;;;;;5085075;28;20537;-81
2023/09/29 10:37:54;;;;;;;11.43;5.00;;;21.70;76.10;;;;;;5085968;28;20489;-80
2023/09/29 10:40:25;;;;;;;9.80;5.30;;;21.70;76.00;;;;;;5088247;28;20453;-81
2023/09/29 10:42:56;;;;;;;7.10;4.30;;;21.80;75.90;;;;;;5087719;28;20453;-80
2023/09/29 10:45:28;;;;;;;11.10;4.43;;;21.90;75.80;;;;;;5083331;28;21037;-80
2023/09/29 10:48:01;;;;;;;12.13;5.13;;;21.90;75.70;;;;;;5077137;28;20470;-81
2023/09/29 10:50:29;;;;;;;9.17;5.37;;;22.00;75.60;;;;;;5069068;28;20460;-79
2023/09/29 10:52:57;;;;;;;7.47;4.30;;;22.10;75.50;;;;;;5083417;28;20966;-80
2023/09/29 10:55:26;;;;;;;9.00;5.37;;;22.20;75.50;;;;;;5086974;28;20583;-80
2023/09/29 10:57:59;;;;;;;11.73;5.90;;;22.30;75.30;;;;;;5082029;28;20460;-81
2023/09/29 11:00:26;;;;;;;6.93;3.70;;;22.40;75.00;;;;;;5062031;28;20976;-81
2023/09/29 11:02:55;;;;;;;8.50;4.50;;;22.50;74.90;;;;;;5084914;28;20468;-80
2023/09/29 11:05:23;;;;;;;8.97;5.03;;;22.60;74.30;;;;;;5087099;28;20455;-80
2023/09/29 11:07:52;;;;;;;13.87;4.27;;;22.70;74.00;;;;;;5066683;28;20514;-80
2023/09/29 11:10:21;;;;;;;9.33;4.23;;;22.70;73.90;;;;;;5088218;28;20949;-81
2023/09/29 11:12:49;;;;;;;8.90;4.50;;;22.70;73.80;;;;;;5085587;28;20492;-81
2023/09/29 11:15:21;;;;;;;8.20;4.40;;;22.80;73.50;;;;;;5069730;28;20476;-81
2023/09/29 11:17:50;;;;;;;8.20;4.40;;;22.80;73.40;;;;;;5086611;28;20457;-79
2023/09/29 11:20:25;;;;;;;8.30;4.00;;;22.90;73.40;;;;;;5068617;28;20994;-81
2023/09/29 11:23:02;;;;;;;7.03;3.70;;;22.90;73.20;;;;;;5085597;28;21165;-81
2023/09/29 11:25:31;;;;;;;8.67;4.90;;;22.90;72.90;;;;;;5086318;28;20505;-81
2023/09/29 11:27:59;;;;;;;9.20;4.27;;;23.00;72.80;;;;;;5087306;28;20453;-81
2023/09/29 11:30:29;;;;;;;11.33;4.77;;;23.00;72.50;;;;;;5100198;28;20481;-80
2023/09/29 11:32:57;;;;;;;13.03;4.90;;;23.10;72.40;;;;;;5068177;28;20453;-79
2023/09/29 11:35:28;;;;;;;7.50;4.07;;;23.20;72.10;;;;;;5083547;28;20481;-81
2023/09/29 11:37:56;;;;;;;6.70;3.70;;;23.30;71.70;;;;;;5070577;28;20518;-80
2023/09/29 11:40:26;;;;;;;9.70;4.20;;;23.30;71.60;;;;;;5066947;28;20456;-79
2023/09/29 11:42:54;;;;;;;8.23;4.00;;;23.40;71.30;;;;;;5101078;28;20561;-80
2023/09/29 11:45:25;;;;;;;8.50;3.43;;;23.40;71.30;;;;;;5066180;28;20504;-80
2023/09/29 11:47:55;;;;;;;10.63;3.67;;;23.50;71.20;;;;;;5085832;28;20459;-80
2023/09/29 11:50:24;;;;;;;8.60;3.73;;;23.60;71.20;;;;;;5086739;28;20522;-80
2023/09/29 11:52:53;;;;;;;7.33;3.70;;;23.60;71.00;;;;;;5101096;28;20464;-81
2023/09/29 11:55:22;;;;;;;6.70;3.90;;;23.70;70.80;;;;;;5083698;28;20559;-81
2023/09/29 11:57:50;;;;;;;8.37;4.13;;;23.70;70.80;;;;;;5081538;28;21211;-81
2023/09/29 12:00:19;;;;;;;9.10;4.77;;;23.80;70.70;;;;;;5097081;28;20978;-81
2023/09/29 12:02:47;;;;;;;8.53;4.17;;;23.90;70.50;;;;;;5085922;28;20961;-81
2023/09/29 12:05:16;;;;;;;8.50;3.97;;;23.90;70.50;;;;;;5096696;28;20478;-80
2023/09/29 12:07:44;;;;;;;7.80;4.00;;;23.90;70.20;;;;;;5086041;28;21111;-80
2023/09/29 12:10:13;;;;;;;8.27;4.63;;;24.00;70.30;;;;;;5069709;28;20505;-81
2023/09/29 12:12:41;;;;;;;9.83;4.27;;;24.00;70.40;;;;;;5087923;28;20464;-82
2023/09/29 12:15:11;;;;;;;9.60;5.20;;;24.00;70.40;;;;;;5088631;28;20830;-80
2023/09/29 12:17:40;;;;;;;12.53;4.73;;;24.10;70.20;;;;;;5090957;28;20468;-80
2023/09/29 12:20:13;;;;;;;10.80;4.80;;;24.10;70.10;;;;;;5083738;28;20492;-80
2023/09/29 12:22:44;;;;;;;8.50;4.13;;;24.10;70.00;;;;;;5072057;28;20453;-78
2023/09/29 12:25:13;;;;;;;10.90;5.07;;;24.20;70.20;;;;;;5084258;28;20456;-80
2023/09/29 12:27:42;;;;;;;9.80;3.90;;;24.20;70.20;;;;;;5090405;28;20539;-79
2023/09/29 12:30:12;;;;;;;11.20;4.00;;;24.30;70.20;;;;;;5094021;28;20863;-80
2023/09/29 12:32:41;;;;;;;8.10;4.30;;;24.30;70.20;;;;;;5075057;28;20461;-81
2023/09/29 12:35:12;;;;;;;6.83;4.03;;;24.40;70.10;;;;;;5091391;28;20484;-80
2023/09/29 12:37:42;;;;;;;8.37;4.17;;;24.50;70.00;;;;;;5073091;28;20451;-80
2023/09/29 12:40:13;;;;;;;7.50;4.03;;;24.50;69.90;;;;;;5083386;28;20449;-80
2023/09/29 12:42:46;;;;;;;9.90;4.50;;;24.50;69.80;;;;;;5083810;28;20466;-80
2023/09/29 12:45:15;;;;;;;9.17;4.17;;;24.50;69.70;;;;;;5089484;28;20994;-80
2023/09/29 12:47:43;;;;;;;7.90;3.77;;;24.40;69.50;;;;;;5081172;28;20475;-79
2023/09/29 12:50:11;;;;;;;9.40;4.03;;;24.40;69.50;;;;;;5090699;28;20464;-79
2023/09/29 12:52:39;;;;;;;10.80;3.57;;;24.40;69.50;;;;;;5087706;28;20456;-80